Aviation Digital Data Service (ADDS)

Output produced by TAFs form (2207 UTC 28 May 2015)
found at http://www.aviationweather.gov/adds/tafs/
 
KMRB 281740Z 2818/2918 VRB03KT P6SM SCT050 
     FM281900 VRB03KT P6SM VCTS SCT050CB 
     FM282200 26004KT P6SM VCTS BKN050CB 
     FM290100 00000KT P6SM BKN050 
     FM290600 03004KT P6SM SCT050 
     FM291400 10005KT P6SM BKN050